createdAt,value
2023-03-27T00:01:14.279Z,81.40
2023-03-27T00:03:44.932Z,81.20
2023-03-27T00:06:16.400Z,81.10
2023-03-27T00:08:47.903Z,81.10
2023-03-27T00:11:18.537Z,81.20
2023-03-27T00:13:50.075Z,81.20
2023-03-27T00:16:24.420Z,81.20
2023-03-27T00:18:53.408Z,81.10
2023-03-27T00:21:24.260Z,81.10
2023-03-27T00:24:02.909Z,81.10
2023-03-27T00:26:32.503Z,81.20
2023-03-27T00:29:00.969Z,81.20
2023-03-27T00:31:34.159Z,81.20
2023-03-27T00:34:03.222Z,81.20
2023-03-27T00:36:31.506Z,81.30
2023-03-27T00:39:01.200Z,81.30
2023-03-27T00:41:29.846Z,81.30
2023-03-27T00:43:58.288Z,81.30
2023-03-27T00:46:35.610Z,81.40
2023-03-27T00:49:06.399Z,81.50
2023-03-27T00:51:36.757Z,81.40
2023-03-27T00:54:07.589Z,81.40
2023-03-27T00:56:38.750Z,81.50
2023-03-27T00:59:10.466Z,81.50
2023-03-27T01:01:40.466Z,81.60
2023-03-27T01:04:19.951Z,81.60
2023-03-27T01:06:51.539Z,81.60
2023-03-27T01:09:27.265Z,81.60
2023-03-27T01:12:04.000Z,81.40
2023-03-27T01:17:27.914Z,81.40
2023-03-27T01:20:14.051Z,81.10
2023-03-27T01:23:02.152Z,81.30
2023-03-27T01:25:48.295Z,81.30
2023-03-27T01:28:32.522Z,81.30
2023-03-27T01:31:10.181Z,81.10
2023-03-27T01:33:59.308Z,81.20
2023-03-27T01:36:47.876Z,81.40
2023-03-27T01:39:29.247Z,81.00
2023-03-27T01:42:05.965Z,81.30
2023-03-27T01:44:45.396Z,81.20
2023-03-27T01:47:19.288Z,81.40
2023-03-27T01:49:59.065Z,81.10
2023-03-27T01:52:34.778Z,81.30
2023-03-27T01:55:13.983Z,81.30
2023-03-27T01:57:50.336Z,81.00
2023-03-27T02:00:22.610Z,80.70
2023-03-27T02:02:54.915Z,81.00
2023-03-27T02:05:35.353Z,81.20
2023-03-27T02:08:16.970Z,81.00
2023-03-27T02:10:51.386Z,80.80
2023-03-27T02:13:26.168Z,80.70
2023-03-27T02:15:58.417Z,80.80
2023-03-27T02:18:32.678Z,80.50
2023-03-27T02:21:02.739Z,80.60
2023-03-27T02:23:33.501Z,80.30
2023-03-27T02:26:05.285Z,80.30
2023-03-27T02:28:49.269Z,80.20
2023-03-27T02:31:32.497Z,80.30
2023-03-27T02:34:29.326Z,80.10
2023-03-27T02:37:09.637Z,80.10
2023-03-27T02:40:27.449Z,80.10
2023-03-27T02:43:09.848Z,80.20
2023-03-27T02:45:46.491Z,80.80
2023-03-27T02:48:29.719Z,80.10
2023-03-27T02:51:03.632Z,80.20
2023-03-27T02:53:59.383Z,80.40
2023-03-27T02:59:36.918Z,80.50
2023-03-27T03:02:11.405Z,80.60
2023-03-27T03:05:10.484Z,80.50
2023-03-27T03:07:41.755Z,80.50
2023-03-27T03:10:12.884Z,80.50
2023-03-27T03:12:41.610Z,80.70
2023-03-27T03:15:12.043Z,80.50
2023-03-27T03:17:42.932Z,80.60
2023-03-27T03:20:16.777Z,80.70
2023-03-27T03:22:52.360Z,80.90
2023-03-27T03:25:29.464Z,80.90
2023-03-27T03:27:59.797Z,81.10
2023-03-27T03:30:49.714Z,81.10
2023-03-27T03:33:37.403Z,81.20
2023-03-27T03:36:11.702Z,81.20
2023-03-27T03:38:43.084Z,81.20
2023-03-27T03:41:17.120Z,81.10
2023-03-27T03:43:47.459Z,81.10
2023-03-27T03:46:18.705Z,81.10
2023-03-27T03:48:48.131Z,81.30
2023-03-27T03:51:20.113Z,81.30
2023-03-27T03:54:14.221Z,81.10
2023-03-27T03:56:46.043Z,81.00
2023-03-27T03:59:17.504Z,81.10
2023-03-27T04:02:12.139Z,81.00
2023-03-27T04:04:46.111Z,81.00
2023-03-27T04:07:19.647Z,81.00
2023-03-27T04:09:48.864Z,81.00
2023-03-27T04:15:36.578Z,81.30
2023-03-27T04:18:22.259Z,81.20
2023-03-27T04:20:54.613Z,81.30
2023-03-27T04:23:30.317Z,81.40
2023-03-27T04:26:03.334Z,81.50
2023-03-27T04:28:59.562Z,81.40
2023-03-27T04:31:51.922Z,81.20
2023-03-27T04:34:45.152Z,81.30
2023-03-27T04:37:33.289Z,81.30
2023-03-27T04:40:19.242Z,81.40
2023-03-27T04:42:47.725Z,81.40
2023-03-27T04:45:28.858Z,81.40
2023-03-27T04:48:00.746Z,81.30
2023-03-27T04:50:31.457Z,81.20
2023-03-27T04:53:02.259Z,81.10
2023-03-27T04:55:39.289Z,81.10
2023-03-27T04:58:10.942Z,81.20
2023-03-27T05:00:45.397Z,81.10
2023-03-27T05:03:33.123Z,81.10
2023-03-27T05:06:32.195Z,81.00
2023-03-27T05:09:02.492Z,81.00
2023-03-27T05:11:36.685Z,81.10
2023-03-27T05:14:05.206Z,81.10
2023-03-27T05:16:36.252Z,81.10
2023-03-27T05:19:06.887Z,80.90
2023-03-27T05:21:43.996Z,81.10
2023-03-27T05:24:13.799Z,81.10
2023-03-27T05:26:42.522Z,80.90
2023-03-27T05:29:10.996Z,81.20
2023-03-27T05:31:43.956Z,81.20
2023-03-27T05:34:31.096Z,81.30
2023-03-27T05:37:05.900Z,81.20
2023-03-27T05:39:41.703Z,81.00
2023-03-27T05:42:11.286Z,81.00
2023-03-27T05:44:43.014Z,81.30
2023-03-27T05:47:11.725Z,80.00
2023-03-27T05:49:40.596Z,79.40
2023-03-27T05:52:16.490Z,79.10
2023-03-27T05:54:44.864Z,77.90
2023-03-27T05:57:15.538Z,77.40
2023-03-27T05:59:44.601Z,76.50
2023-03-27T06:02:25.742Z,75.70
2023-03-27T06:05:06.103Z,75.00
2023-03-27T06:07:43.668Z,74.30
2023-03-27T06:10:14.354Z,73.60
2023-03-27T06:13:03.044Z,72.90
2023-03-27T06:15:42.068Z,72.90
2023-03-27T06:18:34.042Z,70.60
2023-03-27T06:21:02.284Z,69.00
2023-03-27T06:23:32.957Z,68.70
2023-03-27T06:26:01.297Z,68.90
2023-03-27T06:28:31.958Z,67.20
2023-03-27T06:31:00.605Z,66.50
2023-03-27T06:33:35.434Z,65.40
2023-03-27T06:36:09.293Z,66.30
2023-03-27T06:38:42.827Z,66.60
2023-03-27T06:41:12.318Z,65.00
2023-03-27T06:43:59.459Z,59.40
2023-03-27T06:46:53.304Z,61.20
2023-03-27T06:49:47.989Z,61.70
2023-03-27T06:52:22.675Z,63.10
2023-03-27T06:54:53.021Z,60.50
2023-03-27T06:57:22.254Z,63.90
2023-03-27T07:00:13.219Z,64.10
2023-03-27T07:03:11.012Z,60.80
2023-03-27T07:05:50.424Z,62.70
2023-03-27T07:08:24.753Z,60.10
2023-03-27T07:11:11.672Z,62.40
2023-03-27T07:13:46.820Z,66.30
2023-03-27T07:16:24.844Z,62.40
2023-03-27T07:18:53.926Z,63.80
2023-03-27T07:21:22.791Z,61.20
2023-03-27T07:23:51.953Z,60.40
2023-03-27T07:26:32.438Z,57.70
2023-03-27T07:29:04.042Z,60.60
2023-03-27T07:31:53.018Z,59.40
2023-03-27T07:34:20.922Z,58.80
2023-03-27T07:37:08.306Z,57.70
2023-03-27T07:39:39.822Z,58.20
2023-03-27T07:42:10.207Z,59.60
2023-03-27T07:44:51.167Z,58.60
2023-03-27T07:47:19.892Z,58.80
2023-03-27T07:49:48.344Z,55.40
2023-03-27T07:52:22.330Z,56.20
2023-03-27T07:54:59.575Z,54.20
2023-03-27T07:57:55.396Z,52.70
2023-03-27T08:00:30.406Z,51.60
2023-03-27T08:03:11.941Z,48.70
2023-03-27T08:05:45.587Z,48.30
2023-03-27T08:08:17.043Z,49.10
2023-03-27T08:10:58.315Z,46.50
2023-03-27T08:13:31.813Z,48.30
2023-03-27T08:16:05.061Z,43.40
2023-03-27T08:18:33.708Z,43.10
2023-03-27T08:21:03.298Z,42.90
2023-03-27T08:23:33.919Z,42.80
2023-03-27T08:26:21.547Z,41.90
2023-03-27T08:28:58.992Z,42.40
2023-03-27T08:31:31.905Z,41.90
2023-03-27T08:34:02.790Z,46.50
2023-03-27T08:36:51.491Z,50.00
2023-03-27T08:39:23.008Z,50.70
2023-03-27T08:42:06.155Z,49.20
2023-03-27T08:44:38.631Z,45.70
2023-03-27T08:47:13.199Z,45.50
2023-03-27T08:49:51.063Z,47.90
2023-03-27T08:52:41.594Z,48.10
2023-03-27T08:55:20.501Z,49.40
2023-03-27T08:57:59.730Z,45.10
2023-03-27T09:00:32.136Z,44.10
2023-03-27T09:03:22.540Z,42.40
2023-03-27T09:05:55.846Z,42.00
2023-03-27T09:08:29.457Z,44.10
2023-03-27T09:11:05.342Z,45.90
2023-03-27T09:13:45.484Z,48.60
2023-03-27T09:16:18.952Z,52.80
2023-03-27T09:18:50.552Z,54.50
2023-03-27T09:21:29.146Z,50.60
2023-03-27T09:24:02.391Z,46.70
2023-03-27T09:27:13.648Z,42.90
2023-03-27T09:29:50.412Z,42.30
2023-03-27T09:32:51.683Z,43.50
2023-03-27T09:35:22.240Z,47.90
2023-03-27T09:37:57.034Z,48.80
2023-03-27T09:40:30.475Z,49.10
2023-03-27T09:43:04.426Z,45.50
2023-03-27T09:45:39.101Z,44.20
2023-03-27T09:48:14.404Z,41.20
2023-03-27T09:50:47.636Z,40.80
2023-03-27T09:53:58.046Z,42.30
2023-03-27T09:56:29.913Z,44.90
2023-03-27T09:58:59.242Z,47.20
2023-03-27T10:01:30.286Z,46.20
2023-03-27T10:04:22.023Z,45.90
2023-03-27T10:07:01.671Z,44.00
2023-03-27T10:10:04.240Z,42.00
2023-03-27T10:12:55.930Z,39.30
2023-03-27T10:15:33.960Z,37.80
2023-03-27T10:18:04.928Z,39.90
2023-03-27T10:20:35.227Z,40.70
2023-03-27T10:23:06.711Z,44.90
2023-03-27T10:25:38.415Z,47.60
2023-03-27T10:28:19.834Z,44.80
2023-03-27T10:31:28.406Z,44.50
2023-03-27T10:34:08.458Z,44.60
2023-03-27T10:37:21.237Z,45.80
2023-03-27T10:39:55.490Z,51.70
2023-03-27T10:42:34.473Z,57.70
2023-03-27T10:45:05.837Z,61.10
2023-03-27T10:47:35.999Z,58.70
2023-03-27T10:50:12.090Z,58.00
2023-03-27T10:52:51.917Z,55.40
2023-03-27T10:55:42.192Z,56.30
2023-03-27T10:58:25.731Z,56.20
2023-03-27T11:00:59.052Z,57.60
2023-03-27T11:03:31.685Z,58.00
2023-03-27T11:06:07.032Z,57.50
2023-03-27T11:08:44.737Z,57.30
2023-03-27T11:11:15.849Z,56.50
2023-03-27T11:13:49.842Z,54.00
2023-03-27T11:16:23.008Z,50.10
2023-03-27T11:19:34.139Z,49.90
2023-03-27T11:22:23.153Z,47.60
2023-03-27T11:24:58.565Z,46.90
2023-03-27T11:27:30.639Z,45.80
2023-03-27T11:30:04.844Z,45.00
2023-03-27T11:32:50.669Z,42.00
2023-03-27T11:35:21.994Z,39.60
2023-03-27T11:38:25.353Z,38.50
2023-03-27T11:40:58.322Z,41.20
2023-03-27T11:43:27.519Z,43.60
2023-03-27T11:46:03.470Z,42.10
2023-03-27T11:48:57.262Z,41.70
2023-03-27T11:51:30.906Z,40.90
2023-03-27T11:54:07.194Z,41.70
2023-03-27T11:57:02.503Z,41.00
2023-03-27T11:59:55.555Z,39.50
2023-03-27T12:02:31.970Z,42.60
2023-03-27T12:05:03.947Z,46.90
2023-03-27T12:07:50.255Z,49.50
2023-03-27T12:10:29.565Z,48.80
2023-03-27T12:13:41.283Z,49.10
2023-03-27T12:16:28.517Z,47.50
2023-03-27T12:19:13.792Z,46.20
2023-03-27T12:21:54.041Z,48.60
2023-03-27T12:24:29.588Z,48.00
2023-03-27T12:27:28.805Z,44.90
2023-03-27T12:30:28.089Z,45.30
2023-03-27T12:33:14.359Z,45.00
2023-03-27T12:35:47.058Z,47.00
2023-03-27T12:38:24.208Z,47.40
2023-03-27T12:41:03.060Z,50.00
2023-03-27T12:43:46.434Z,51.00
2023-03-27T12:46:36.666Z,50.60
2023-03-27T12:49:34.250Z,52.00
2023-03-27T12:52:10.647Z,53.20
2023-03-27T12:55:04.680Z,52.90
2023-03-27T12:57:53.182Z,52.70
2023-03-27T13:00:40.768Z,58.10
2023-03-27T13:03:19.912Z,59.50
2023-03-27T13:05:57.610Z,58.60
2023-03-27T13:08:40.110Z,60.00
2023-03-27T13:11:19.703Z,68.00
2023-03-27T13:14:10.074Z,70.60
2023-03-27T13:16:50.046Z,71.70
2023-03-27T13:19:37.061Z,71.30
2023-03-27T13:25:15.930Z,65.10
2023-03-27T13:27:53.099Z,62.70
2023-03-27T13:30:43.330Z,61.00
2023-03-27T13:33:40.416Z,58.00
2023-03-27T13:36:12.618Z,55.00
2023-03-27T13:39:04.314Z,53.40
2023-03-27T13:41:42.976Z,52.10
2023-03-27T13:44:35.569Z,51.40
2023-03-27T13:47:10.675Z,50.80
2023-03-27T13:49:46.117Z,51.10
2023-03-27T13:52:32.231Z,50.70
2023-03-27T13:55:11.040Z,50.90
2023-03-27T13:58:21.453Z,50.50
2023-03-27T14:01:21.397Z,49.40
2023-03-27T14:04:06.141Z,48.50
2023-03-27T14:06:56.312Z,45.70
2023-03-27T14:09:29.537Z,42.20
2023-03-27T14:12:31.337Z,42.90
2023-03-27T14:15:35.376Z,43.40
2023-03-27T14:18:36.496Z,42.70
2023-03-27T14:21:08.470Z,42.40
2023-03-27T14:23:48.918Z,43.10
2023-03-27T14:26:30.205Z,44.40
2023-03-27T14:29:01.855Z,48.20
2023-03-27T14:31:39.213Z,50.90
2023-03-27T14:34:25.238Z,53.20
2023-03-27T14:37:22.775Z,55.30
2023-03-27T14:39:55.069Z,59.20
2023-03-27T14:42:29.136Z,61.60
2023-03-27T14:45:11.179Z,62.70
2023-03-27T14:47:42.406Z,62.50
2023-03-27T14:50:14.748Z,65.70
2023-03-27T14:52:45.391Z,67.30
2023-03-27T14:55:18.753Z,68.50
2023-03-27T14:57:53.579Z,67.00
2023-03-27T15:00:30.810Z,65.30
2023-03-27T15:03:05.353Z,60.90
2023-03-27T15:05:34.009Z,61.00
2023-03-27T15:08:04.767Z,59.70
2023-03-27T15:11:11.756Z,57.90
2023-03-27T15:13:49.760Z,55.90
2023-03-27T15:16:28.089Z,55.10
2023-03-27T15:19:05.086Z,55.50
2023-03-27T15:21:45.382Z,56.50
2023-03-27T15:24:17.258Z,57.10
2023-03-27T15:26:46.140Z,57.60
2023-03-27T15:29:18.018Z,58.40
2023-03-27T15:31:49.237Z,60.40
2023-03-27T15:34:23.441Z,61.40
2023-03-27T15:36:56.956Z,62.10
2023-03-27T15:39:26.861Z,63.80
2023-03-27T15:41:58.201Z,66.30
2023-03-27T15:44:27.251Z,68.60
2023-03-27T15:46:59.016Z,69.60
2023-03-27T15:49:44.287Z,69.90
2023-03-27T15:52:31.350Z,68.90
2023-03-27T15:55:00.164Z,68.90
2023-03-27T15:57:30.896Z,64.40
2023-03-27T16:00:01.917Z,64.40
2023-03-27T16:02:41.136Z,62.80
2023-03-27T16:05:10.530Z,61.70
2023-03-27T16:07:46.481Z,62.30
2023-03-27T16:10:15.717Z,62.00
2023-03-27T16:12:50.945Z,60.80
2023-03-27T16:15:29.098Z,58.50
2023-03-27T16:17:58.392Z,56.70
2023-03-27T16:20:34.286Z,56.40
2023-03-27T16:23:04.784Z,56.40
2023-03-27T16:25:34.964Z,57.30
2023-03-27T16:28:04.029Z,56.50
2023-03-27T16:30:35.936Z,56.30
2023-03-27T16:33:05.320Z,57.10
2023-03-27T16:35:34.227Z,57.80
2023-03-27T16:38:05.072Z,57.10
2023-03-27T16:40:33.945Z,58.10
2023-03-27T16:43:02.948Z,57.50
2023-03-27T16:45:32.085Z,57.30
2023-03-27T16:48:00.893Z,58.50
2023-03-27T16:50:30.997Z,59.00
2023-03-27T16:52:59.618Z,60.50
2023-03-27T16:55:30.063Z,61.80
2023-03-27T16:57:58.612Z,63.20
2023-03-27T17:00:27.512Z,63.80
2023-03-27T17:02:56.189Z,65.90
2023-03-27T17:05:24.738Z,66.30
2023-03-27T17:07:53.286Z,66.60
2023-03-27T17:10:21.515Z,67.60
2023-03-27T17:12:51.733Z,68.00
2023-03-27T17:15:20.677Z,67.80
2023-03-27T17:17:50.263Z,68.20
2023-03-27T17:20:19.353Z,69.70
2023-03-27T17:22:48.332Z,72.20
2023-03-27T17:25:17.793Z,73.50
2023-03-27T17:27:46.121Z,74.20
2023-03-27T17:30:26.808Z,74.90
2023-03-27T17:33:03.408Z,75.40
2023-03-27T17:35:32.341Z,75.80
2023-03-27T17:38:01.079Z,76.50
2023-03-27T17:40:29.106Z,76.90
2023-03-27T17:42:57.460Z,76.90
2023-03-27T17:45:27.922Z,77.20
2023-03-27T17:47:56.974Z,77.60
2023-03-27T17:50:25.493Z,77.80
2023-03-27T17:52:54.113Z,78.10
2023-03-27T17:55:22.438Z,78.40
2023-03-27T17:58:05.963Z,78.40
2023-03-27T18:00:38.984Z,78.70
2023-03-27T18:03:09.057Z,78.60
2023-03-27T18:05:38.195Z,78.50
2023-03-27T18:08:07.401Z,78.60
2023-03-27T18:10:38.946Z,78.70
2023-03-27T18:13:07.592Z,78.40
2023-03-27T18:15:35.903Z,78.60
2023-03-27T18:18:06.416Z,78.30
2023-03-27T18:20:35.291Z,78.10
2023-03-27T18:23:04.168Z,78.00
2023-03-27T18:25:32.528Z,78.30
2023-03-27T18:28:02.260Z,78.40
2023-03-27T18:30:32.206Z,78.00
2023-03-27T18:33:00.957Z,77.70
2023-03-27T18:35:31.450Z,77.60
2023-03-27T18:38:00.060Z,77.50
2023-03-27T18:40:28.785Z,77.80
2023-03-27T18:42:57.116Z,77.80
2023-03-27T18:45:25.989Z,77.80
2023-03-27T18:47:54.069Z,77.90
2023-03-27T18:50:22.593Z,78.10
2023-03-27T18:52:52.671Z,78.40
2023-03-27T18:55:21.347Z,78.40
2023-03-27T18:57:50.241Z,78.40
2023-03-27T19:00:20.375Z,78.50
2023-03-27T19:02:49.281Z,78.70
2023-03-27T19:05:18.588Z,78.90
2023-03-27T19:07:47.031Z,78.80
2023-03-27T19:10:17.286Z,78.90
2023-03-27T19:12:59.084Z,78.90
2023-03-27T19:15:53.855Z,78.90
2023-03-27T19:18:42.271Z,78.80
2023-03-27T19:21:28.918Z,78.70
2023-03-27T19:24:10.004Z,78.70
2023-03-27T19:26:46.333Z,78.40
2023-03-27T19:29:14.643Z,78.30
2023-03-27T19:31:43.208Z,78.30
2023-03-27T19:34:11.480Z,78.10
2023-03-27T19:36:40.576Z,77.90
2023-03-27T19:39:09.135Z,77.70
2023-03-27T19:41:37.638Z,77.60
2023-03-27T19:44:08.470Z,77.40
2023-03-27T19:46:36.945Z,77.40
2023-03-27T19:49:05.543Z,77.40
2023-03-27T19:51:54.349Z,77.30
2023-03-27T19:54:22.963Z,77.40
2023-03-27T19:56:51.686Z,77.40
2023-03-27T19:59:30.229Z,77.30
2023-03-27T20:02:00.530Z,77.20
2023-03-27T20:04:29.026Z,77.20
2023-03-27T20:07:02.249Z,77.20
2023-03-27T20:09:30.614Z,77.30
2023-03-27T20:11:59.082Z,77.00
2023-03-27T20:14:31.655Z,77.00
2023-03-27T20:16:59.775Z,77.30
2023-03-27T20:19:30.914Z,77.30
2023-03-27T20:22:02.128Z,77.30
2023-03-27T20:24:30.997Z,77.30
2023-03-27T20:27:02.639Z,77.30
2023-03-27T20:29:32.688Z,77.40
2023-03-27T20:32:01.607Z,77.40
2023-03-27T20:34:30.196Z,77.50
2023-03-27T20:36:59.273Z,77.50
2023-03-27T20:39:51.028Z,77.50
2023-03-27T20:42:23.322Z,77.60
2023-03-27T20:44:58.373Z,77.90
2023-03-27T20:47:26.903Z,78.00
2023-03-27T20:49:59.176Z,78.00
2023-03-27T20:52:28.745Z,78.00
2023-03-27T20:54:57.123Z,78.10
2023-03-27T20:57:25.483Z,78.00
2023-03-27T20:59:55.471Z,78.10
2023-03-27T21:02:24.195Z,78.30
2023-03-27T21:04:54.932Z,78.30
2023-03-27T21:07:23.268Z,78.40
2023-03-27T21:09:54.517Z,78.30
2023-03-27T21:12:25.324Z,78.30
2023-03-27T21:14:55.032Z,78.40
2023-03-27T21:17:23.767Z,78.40
2023-03-27T21:19:52.452Z,78.40
2023-03-27T21:22:21.152Z,78.50
2023-03-27T21:24:49.961Z,78.40
2023-03-27T21:27:18.379Z,78.40
2023-03-27T21:29:46.657Z,78.50
2023-03-27T21:32:16.532Z,78.60
2023-03-27T21:34:44.941Z,78.60
2023-03-27T21:37:13.778Z,78.50
2023-03-27T21:39:41.788Z,78.60
2023-03-27T21:42:10.412Z,78.50
2023-03-27T21:44:38.607Z,78.50
2023-03-27T21:47:07.013Z,78.70
2023-03-27T21:49:37.750Z,78.70
2023-03-27T21:52:08.103Z,78.60
2023-03-27T21:54:36.634Z,78.70
2023-03-27T21:57:05.590Z,78.80
2023-03-27T21:59:34.428Z,78.80
2023-03-27T22:02:10.114Z,78.90
2023-03-27T22:04:40.140Z,79.00
2023-03-27T22:07:09.272Z,79.10
2023-03-27T22:09:39.162Z,79.30
2023-03-27T22:12:07.615Z,79.60
2023-03-27T22:14:39.769Z,79.70
2023-03-27T22:17:11.040Z,79.60
2023-03-27T22:20:02.232Z,79.50
2023-03-27T22:22:31.457Z,79.40
2023-03-27T22:25:01.887Z,79.40
2023-03-27T22:27:30.512Z,79.40
2023-03-27T22:29:58.635Z,79.30
2023-03-27T22:32:32.807Z,79.30
2023-03-27T22:35:05.007Z,79.40
2023-03-27T22:37:38.903Z,79.30
2023-03-27T22:40:10.834Z,79.40
2023-03-27T22:42:41.559Z,79.40
2023-03-27T22:45:14.989Z,79.60
2023-03-27T22:47:45.712Z,79.60
2023-03-27T22:50:18.429Z,79.50
2023-03-27T22:52:54.850Z,79.50
2023-03-27T22:55:29.813Z,79.60
2023-03-27T22:58:02.773Z,79.60
2023-03-27T23:00:35.385Z,79.50
2023-03-27T23:03:04.728Z,79.60
2023-03-27T23:05:38.386Z,79.60
2023-03-27T23:08:08.347Z,79.50
2023-03-27T23:10:48.241Z,79.30
2023-03-27T23:13:16.624Z,79.30
2023-03-27T23:15:52.854Z,79.40
2023-03-27T23:18:25.157Z,79.70
2023-03-27T23:20:56.583Z,79.70
2023-03-27T23:23:25.772Z,79.80
2023-03-27T23:25:57.684Z,80.00
2023-03-27T23:28:35.678Z,80.00
2023-03-27T23:31:05.375Z,80.00
2023-03-27T23:33:36.249Z,79.90
2023-03-27T23:36:25.275Z,79.90
2023-03-27T23:38:54.444Z,80.00
2023-03-27T23:41:24.943Z,80.10
2023-03-27T23:43:55.792Z,80.20
2023-03-27T23:46:27.820Z,80.20
2023-03-27T23:49:01.727Z,80.30
2023-03-27T23:51:35.472Z,80.40
2023-03-27T23:54:05.086Z,80.40
2023-03-27T23:56:37.187Z,80.40
2023-03-27T23:59:05.755Z,80.30
